地図

経路データ

SID SEASON NUMBER BASIN SUBBASIN NAME ISO_TIME NATURE LAT LON WMO_WIND WMO_PRES WMO_AGENCY TRACK_TYPE DIST2LAND LANDFALL IFLAG USA_AGENCY USA_ATCF_ID USA_LAT USA_LON USA_RECORD USA_STATUS USA_WIND USA_PRES USA_SSHS USA_R34_NE USA_R34_SE USA_R34_SW USA_R34_NW USA_R50_NE USA_R50_SE USA_R50_SW USA_R50_NW USA_R64_NE USA_R64_SE USA_R64_SW USA_R64_NW USA_POCI USA_ROCI USA_RMW USA_EYE TOKYO_LAT TOKYO_LON TOKYO_GRADE TOKYO_WIND TOKYO_PRES TOKYO_R50_DIR TOKYO_R50_LONG TOKYO_R50_SHORT TOKYO_R30_DIR TOKYO_R30_LONG TOKYO_R30_SHORT TOKYO_LAND CMA_LAT CMA_LON CMA_CAT CMA_WIND CMA_PRES HKO_LAT HKO_LON HKO_CAT HKO_WIND HKO_PRES NEWDELHI_LAT NEWDELHI_LON NEWDELHI_GRADE NEWDELHI_WIND NEWDELHI_PRES NEWDELHI_CI NEWDELHI_DP NEWDELHI_POCI REUNION_LAT REUNION_LON REUNION_TYPE REUNION_WIND REUNION_PRES REUNION_TNUM REUNION_CI REUNION_RMW REUNION_R34_NE REUNION_R34_SE REUNION_R34_SW REUNION_R34_NW REUNION_R50_NE REUNION_R50_SE REUNION_R50_SW REUNION_R50_NW REUNION_R64_NE REUNION_R64_SE REUNION_R64_SW REUNION_R64_NW BOM_LAT BOM_LON BOM_TYPE BOM_WIND BOM_PRES BOM_TNUM BOM_CI BOM_RMW BOM_R34_NE BOM_R34_SE BOM_R34_SW BOM_R34_NW BOM_R50_NE BOM_R50_SE BOM_R50_SW BOM_R50_NW BOM_R64_NE BOM_R64_SE BOM_R64_SW BOM_R64_NW BOM_ROCI BOM_POCI BOM_EYE BOM_POS_METHOD BOM_PRES_METHOD NADI_LAT NADI_LON NADI_CAT NADI_WIND NADI_PRES WELLINGTON_LAT WELLINGTON_LON WELLINGTON_WIND WELLINGTON_PRES DS824_LAT DS824_LON DS824_STAGE DS824_WIND DS824_PRES TD9636_LAT TD9636_LON TD9636_STAGE TD9636_WIND TD9636_PRES TD9635_LAT TD9635_LON TD9635_WIND TD9635_PRES TD9635_ROCI NEUMANN_LAT NEUMANN_LON NEUMANN_CLASS NEUMANN_WIND NEUMANN_PRES MLC_LAT MLC_LON MLC_CLASS MLC_WIND MLC_PRES USA_GUST BOM_GUST BOM_GUST_PER REUNION_GUST REUNION_GUST_PER USA_SEAHGT USA_SEARAD_NE USA_SEARAD_SE USA_SEARAD_SW USA_SEARAD_NW STORM_SPEED STORM_DIR
1883345S14095 1884 40 SI WA NOT_NAMED 1883-12-10 18:00:00 NR -13.6000 94.9000 main 1345 1345 __________O___ -1 -13.6000 94.9000 7 4 237
1883345S14095 1884 40 SI WA NOT_NAMED 1883-12-10 21:00:00 NR -13.7203 94.7062 main 1368 1368 __________P___ -1 -13.7203 94.7062 7 5 237
1883345S14095 1884 40 SI WA NOT_NAMED 1883-12-11 00:00:00 NR -13.8524 94.4999 main 1399 1399 __________P___ -1 -13.8524 94.4999 7 5 236
1883345S14095 1884 40 SI WA NOT_NAMED 1883-12-11 03:00:00 NR -14.0084 94.2687 main 1422 1422 __________P___ -1 -14.0084 94.2687 7 6 234
1883345S14095 1884 40 SI WA NOT_NAMED 1883-12-11 06:00:00 NR -14.2000 94.0000 main 1460 1460 __________O___ -1 -14.2000 94.0000 7 7 233
1883345S14095 1884 40 SI WA NOT_NAMED 1883-12-11 09:00:00 NR -14.4351 93.6860 main 1498 1498 __________P___ -1 -14.4351 93.6860 7 8 232
1883345S14095 1884 40 SI WA NOT_NAMED 1883-12-11 12:00:00 NR -14.7051 93.3376 main 1552 1552 __________P___ -1 -14.7051 93.3376 7 9 231
1883345S14095 1884 40 SI WA NOT_NAMED 1883-12-11 15:00:00 NR -14.9975 92.9703 main 1598 1598 __________P___ -1 -14.9975 92.9703 7 9 230
1883345S14095 1884 40 SI WA NOT_NAMED 1883-12-11 18:00:00 NR -15.3000 92.6000 main 1652 1652 __________O___ -1 -15.3000 92.6000 7 9 230
1883345S14095 1884 40 SI WA NOT_NAMED 1883-12-11 21:00:00 NR -15.5806 92.2416 main 1705 1705 __________P___ -1 -15.5806 92.2416 7 9 230
1883345S14095 1884 40 SI WA NOT_NAMED 1883-12-12 00:00:00 NR -15.8699 91.8846 main 1752 1752 __________P___ -1 -15.8699 91.8846 7 9 229
1883345S14095 1884 40 SI WA NOT_NAMED 1883-12-12 03:00:00 NR -16.1743 91.5353 main 1805 1805 __________P___ -1 -16.1743 91.5353 7 9 226
1883345S14095 1884 40 SI WA NOT_NAMED 1883-12-12 06:00:00 NR -16.5000 91.2000 main 1852 1852 __________O___ -1 -16.5000 91.2000 7 9 224
1883345S14095 1884 40 SI WA NOT_NAMED 1883-12-12 09:00:00 NR -16.8411 90.8732 main 1898 1898 __________P___ -1 -16.8411 90.8732 7 9 221
1883345S14095 1884 40 SI WA NOT_NAMED 1883-12-12 12:00:00 NR -17.2049 90.5622 main 1953 1953 __________P___ -1 -17.2049 90.5622 7 10 217
1883345S14095 1884 40 SI WA NOT_NAMED 1883-12-12 15:00:00 NR -17.5912 90.2701 main 2007 2007 __________P___ -1 -17.5912 90.2701 7 10 214
1883345S14095 1884 40 SI WA NOT_NAMED 1883-12-12 18:00:00 NR -18.0000 90.0000 main 2062 2062 __________O___ -1 -18.0000 90.0000 7 10 212
1883345S14095 1884 40 SI MM NOT_NAMED 1883-12-12 21:00:00 NR -18.4325 89.7212 main 2116 2116 __________P___ -1 -18.4325 89.7212 7 10 210
1883345S14095 1884 40 SI MM NOT_NAMED 1883-12-13 00:00:00 NR -18.8850 89.4680 main 2172 2172 __________P___ -1 -18.8850 89.4680 7 10 206
1883345S14095 1884 40 SI MM NOT_NAMED 1883-12-13 03:00:00 NR -19.3450 89.2557 main 2216 2216 __________P___ -1 -19.3450 89.2557 7 10 201
1883345S14095 1884 40 SI MM NOT_NAMED 1883-12-13 06:00:00 NR -19.8000 89.1000 main 2267 2267 __________O___ -1 -19.8000 89.1000 7 9 195
1883345S14095 1884 40 SI MM NOT_NAMED 1883-12-13 09:00:00 NR -20.2279 89.0087 main 2303 2303 __________P___ -1 -20.2279 89.0087 7 9 188
1883345S14095 1884 40 SI MM NOT_NAMED 1883-12-13 12:00:00 NR -20.6498 88.9742 main 2331 2331 __________P___ -1 -20.6498 88.9742 7 8 183
1883345S14095 1884 40 SI MM NOT_NAMED 1883-12-13 15:00:00 NR -21.0718 88.9777 main 2366 2366 __________P___ -1 -21.0718 88.9777 7 9 179
1883345S14095 1884 40 SI MM NOT_NAMED 1883-12-13 18:00:00 NR -21.5000 89.0000 main 2395 2395 __________O___ -1 -21.5000 89.0000 7 9 177
1883345S14095 1884 40 SI MM NOT_NAMED 1883-12-13 21:00:00 NR -21.9391 89.0252 main 2425 2425 __________P___ -1 -21.9391 89.0252 7 9 178
1883345S14095 1884 40 SI MM NOT_NAMED 1883-12-14 00:00:00 NR -22.3876 89.0502 main 2455 2455 __________P___ -1 -22.3876 89.0502 7 9 178
1883345S14095 1884 40 SI MM NOT_NAMED 1883-12-14 03:00:00 NR -22.8423 89.0751 main 2471 2459 __________P___ -1 -22.8423 89.0751 7 9 177
1883345S14095 1884 40 SI MM NOT_NAMED 1883-12-14 06:00:00 NR -23.3000 89.1000 main 2459 __________O___ -1 -23.3000 89.1000 7 9 178

IBTrACS Databaseについて

本データベースは、米国NOAAが公開する1842年以降の世界の熱帯低気圧のベストトラックデータアーカイブInternational Best Track Archive for Climate Stewardship (IBTrACS)を、ウェブで閲覧しやすい形式に変換したものです。

最終更新日:2021-10-27